sensor_id;sensor_type;location;lat;lon;timestamp;P1;durP1;ratioP1;P2;durP2;ratioP2
18334;SDS011;9293;49.524;10.964;2023-06-10T00:02:03;8.43;;;7.03;;
18334;SDS011;9293;49.524;10.964;2023-06-10T00:04:32;9.68;;;7.35;;
18334;SDS011;9293;49.524;10.964;2023-06-10T00:07:05;11.15;;;8.60;;
18334;SDS011;9293;49.524;10.964;2023-06-10T00:09:45;10.05;;;8.50;;
18334;SDS011;9293;49.524;10.964;2023-06-10T00:12:14;9.43;;;8.23;;
18334;SDS011;9293;49.524;10.964;2023-06-10T00:14:49;9.25;;;6.95;;
18334;SDS011;9293;49.524;10.964;2023-06-10T00:17:36;11.98;;;8.80;;
18334;SDS011;9293;49.524;10.964;2023-06-10T00:20:08;9.55;;;7.88;;
18334;SDS011;9293;49.524;10.964;2023-06-10T00:22:47;12.00;;;8.23;;
18334;SDS011;9293;49.524;10.964;2023-06-10T00:25:19;10.48;;;7.63;;
18334;SDS011;9293;49.524;10.964;2023-06-10T00:27:48;9.45;;;8.32;;
18334;SDS011;9293;49.524;10.964;2023-06-10T00:30:17;10.93;;;8.73;;
18334;SDS011;9293;49.524;10.964;2023-06-10T00:32:49;10.10;;;7.93;;
18334;SDS011;9293;49.524;10.964;2023-06-10T00:35:19;14.40;;;8.30;;
18334;SDS011;9293;49.524;10.964;2023-06-10T00:37:49;10.35;;;8.35;;
18334;SDS011;9293;49.524;10.964;2023-06-10T00:40:24;10.05;;;7.50;;
18334;SDS011;9293;49.524;10.964;2023-06-10T00:42:55;10.30;;;7.35;;
18334;SDS011;9293;49.524;10.964;2023-06-10T00:45:41;9.65;;;7.13;;
18334;SDS011;9293;49.524;10.964;2023-06-10T00:48:11;7.97;;;7.18;;
18334;SDS011;9293;49.524;10.964;2023-06-10T00:50:42;8.90;;;7.13;;
18334;SDS011;9293;49.524;10.964;2023-06-10T00:53:11;9.05;;;7.28;;
18334;SDS011;9293;49.524;10.964;2023-06-10T00:55:42;9.15;;;8.00;;
18334;SDS011;9293;49.524;10.964;2023-06-10T00:58:12;12.25;;;9.02;;
18334;SDS011;9293;49.524;10.964;2023-06-10T01:00:51;11.50;;;8.15;;
18334;SDS011;9293;49.524;10.964;2023-06-10T01:03:23;10.20;;;7.60;;
18334;SDS011;9293;49.524;10.964;2023-06-10T01:05:57;9.50;;;8.52;;
18334;SDS011;9293;49.524;10.964;2023-06-10T01:14:48;10.27;;;7.93;;
18334;SDS011;9293;49.524;10.964;2023-06-10T01:20:01;9.15;;;7.45;;
18334;SDS011;9293;49.524;10.964;2023-06-10T01:22:39;9.43;;;7.63;;
18334;SDS011;9293;49.524;10.964;2023-06-10T01:25:08;8.73;;;7.78;;
18334;SDS011;9293;49.524;10.964;2023-06-10T01:27:38;7.82;;;7.07;;
18334;SDS011;9293;49.524;10.964;2023-06-10T01:30:15;9.88;;;8.38;;
18334;SDS011;9293;49.524;10.964;2023-06-10T01:35:18;12.43;;;8.00;;
18334;SDS011;9293;49.524;10.964;2023-06-10T01:37:58;10.20;;;7.90;;
18334;SDS011;9293;49.524;10.964;2023-06-10T01:40:29;10.18;;;8.45;;
18334;SDS011;9293;49.524;10.964;2023-06-10T01:43:04;13.32;;;8.80;;
18334;SDS011;9293;49.524;10.964;2023-06-10T01:45:38;9.25;;;8.35;;
18334;SDS011;9293;49.524;10.964;2023-06-10T01:48:16;10.07;;;8.98;;
18334;SDS011;9293;49.524;10.964;2023-06-10T01:50:45;9.70;;;8.32;;
18334;SDS011;9293;49.524;10.964;2023-06-10T01:53:13;10.85;;;8.27;;
18334;SDS011;9293;49.524;10.964;2023-06-10T01:55:43;10.07;;;9.10;;
18334;SDS011;9293;49.524;10.964;2023-06-10T01:58:12;11.80;;;8.60;;
18334;SDS011;9293;49.524;10.964;2023-06-10T02:00:41;11.82;;;9.38;;
18334;SDS011;9293;49.524;10.964;2023-06-10T02:03:11;8.82;;;7.35;;
18334;SDS011;9293;49.524;10.964;2023-06-10T02:05:46;9.40;;;8.50;;
18334;SDS011;9293;49.524;10.964;2023-06-10T02:08:19;11.00;;;8.25;;
18334;SDS011;9293;49.524;10.964;2023-06-10T02:10:51;8.85;;;7.95;;
18334;SDS011;9293;49.524;10.964;2023-06-10T02:13:20;12.88;;;8.65;;
18334;SDS011;9293;49.524;10.964;2023-06-10T02:15:52;12.48;;;8.07;;
18334;SDS011;9293;49.524;10.964;2023-06-10T02:18:27;11.07;;;8.13;;
18334;SDS011;9293;49.524;10.964;2023-06-10T02:21:07;11.93;;;7.40;;
18334;SDS011;9293;49.524;10.964;2023-06-10T02:23:36;8.25;;;7.43;;
18334;SDS011;9293;49.524;10.964;2023-06-10T02:26:15;9.70;;;7.20;;
18334;SDS011;9293;49.524;10.964;2023-06-10T02:28:45;7.30;;;6.40;;
18334;SDS011;9293;49.524;10.964;2023-06-10T02:31:16;8.05;;;7.22;;
18334;SDS011;9293;49.524;10.964;2023-06-10T02:33:46;7.30;;;6.70;;
18334;SDS011;9293;49.524;10.964;2023-06-10T02:36:15;9.85;;;7.10;;
18334;SDS011;9293;49.524;10.964;2023-06-10T02:38:45;7.95;;;7.15;;
18334;SDS011;9293;49.524;10.964;2023-06-10T02:41:15;8.13;;;7.20;;
18334;SDS011;9293;49.524;10.964;2023-06-10T02:43:52;8.48;;;7.18;;
18334;SDS011;9293;49.524;10.964;2023-06-10T02:46:22;8.45;;;7.55;;
18334;SDS011;9293;49.524;10.964;2023-06-10T02:48:58;8.15;;;7.15;;
18334;SDS011;9293;49.524;10.964;2023-06-10T02:51:29;7.30;;;6.57;;
18334;SDS011;9293;49.524;10.964;2023-06-10T02:54:01;9.98;;;8.07;;
18334;SDS011;9293;49.524;10.964;2023-06-10T02:56:30;9.90;;;7.78;;
18334;SDS011;9293;49.524;10.964;2023-06-10T02:59:11;10.15;;;8.57;;
18334;SDS011;9293;49.524;10.964;2023-06-10T03:01:40;9.52;;;7.45;;
18334;SDS011;9293;49.524;10.964;2023-06-10T03:04:12;11.20;;;7.70;;
18334;SDS011;9293;49.524;10.964;2023-06-10T03:06:53;9.63;;;8.63;;
18334;SDS011;9293;49.524;10.964;2023-06-10T03:09:30;9.05;;;7.70;;
18334;SDS011;9293;49.524;10.964;2023-06-10T03:12:00;11.15;;;8.13;;
18334;SDS011;9293;49.524;10.964;2023-06-10T03:14:35;10.38;;;7.68;;
18334;SDS011;9293;49.524;10.964;2023-06-10T03:17:08;8.57;;;7.78;;
18334;SDS011;9293;49.524;10.964;2023-06-10T03:19:40;9.02;;;7.25;;
18334;SDS011;9293;49.524;10.964;2023-06-10T03:22:10;7.57;;;6.63;;
18334;SDS011;9293;49.524;10.964;2023-06-10T03:27:23;8.13;;;6.70;;
18334;SDS011;9293;49.524;10.964;2023-06-10T03:29:58;9.13;;;7.15;;
18334;SDS011;9293;49.524;10.964;2023-06-10T03:32:28;8.88;;;7.13;;
18334;SDS011;9293;49.524;10.964;2023-06-10T03:35:09;10.80;;;7.10;;
18334;SDS011;9293;49.524;10.964;2023-06-10T03:37:38;9.23;;;7.40;;
18334;SDS011;9293;49.524;10.964;2023-06-10T03:40:07;12.27;;;7.85;;
18334;SDS011;9293;49.524;10.964;2023-06-10T03:42:40;8.48;;;7.55;;
18334;SDS011;9293;49.524;10.964;2023-06-10T03:45:11;8.90;;;7.43;;
18334;SDS011;9293;49.524;10.964;2023-06-10T03:47:46;8.70;;;6.93;;
18334;SDS011;9293;49.524;10.964;2023-06-10T03:50:21;7.97;;;7.18;;
18334;SDS011;9293;49.524;10.964;2023-06-10T03:52:54;8.35;;;6.60;;
18334;SDS011;9293;49.524;10.964;2023-06-10T03:55:27;8.88;;;7.05;;
18334;SDS011;9293;49.524;10.964;2023-06-10T03:58:05;10.13;;;7.70;;
18334;SDS011;9293;49.524;10.964;2023-06-10T04:00:34;8.70;;;7.10;;
18334;SDS011;9293;49.524;10.964;2023-06-10T04:03:14;9.20;;;7.80;;
18334;SDS011;9293;49.524;10.964;2023-06-10T04:05:49;13.40;;;12.02;;
18334;SDS011;9293;49.524;10.964;2023-06-10T04:08:18;9.05;;;7.97;;
18334;SDS011;9293;49.524;10.964;2023-06-10T04:10:46;8.98;;;8.10;;
18334;SDS011;9293;49.524;10.964;2023-06-10T04:13:15;8.98;;;8.07;;
18334;SDS011;9293;49.524;10.964;2023-06-10T04:15:50;9.65;;;8.32;;
18334;SDS011;9293;49.524;10.964;2023-06-10T04:18:19;10.85;;;7.70;;
18334;SDS011;9293;49.524;10.964;2023-06-10T04:20:52;9.30;;;8.15;;
18334;SDS011;9293;49.524;10.964;2023-06-10T04:23:21;9.18;;;8.27;;
18334;SDS011;9293;49.524;10.964;2023-06-10T04:25:50;11.40;;;8.70;;
18334;SDS011;9293;49.524;10.964;2023-06-10T04:28:23;9.65;;;8.73;;
18334;SDS011;9293;49.524;10.964;2023-06-10T04:31:01;11.10;;;8.95;;
18334;SDS011;9293;49.524;10.964;2023-06-10T04:33:32;12.80;;;8.77;;
18334;SDS011;9293;49.524;10.964;2023-06-10T04:36:03;9.80;;;8.77;;
18334;SDS011;9293;49.524;10.964;2023-06-10T04:38:37;10.50;;;9.50;;
18334;SDS011;9293;49.524;10.964;2023-06-10T04:41:07;9.25;;;8.35;;
18334;SDS011;9293;49.524;10.964;2023-06-10T04:43:36;12.15;;;9.23;;
18334;SDS011;9293;49.524;10.964;2023-06-10T04:46:04;10.38;;;9.27;;
18334;SDS011;9293;49.524;10.964;2023-06-10T04:48:35;10.55;;;9.55;;
18334;SDS011;9293;49.524;10.964;2023-06-10T04:51:07;10.68;;;9.68;;
18334;SDS011;9293;49.524;10.964;2023-06-10T04:53:36;12.25;;;10.25;;
18334;SDS011;9293;49.524;10.964;2023-06-10T04:56:06;17.23;;;15.52;;
18334;SDS011;9293;49.524;10.964;2023-06-10T04:58:35;14.80;;;13.40;;
18334;SDS011;9293;49.524;10.964;2023-06-10T05:01:12;13.15;;;10.18;;
18334;SDS011;9293;49.524;10.964;2023-06-10T05:03:40;11.65;;;9.93;;
18334;SDS011;9293;49.524;10.964;2023-06-10T05:06:08;11.48;;;10.35;;
18334;SDS011;9293;49.524;10.964;2023-06-10T05:08:37;12.38;;;10.48;;
18334;SDS011;9293;49.524;10.964;2023-06-10T05:11:07;11.35;;;10.25;;
18334;SDS011;9293;49.524;10.964;2023-06-10T05:13:41;11.05;;;9.98;;
18334;SDS011;9293;49.524;10.964;2023-06-10T05:16:13;11.70;;;10.50;;
18334;SDS011;9293;49.524;10.964;2023-06-10T05:18:47;11.90;;;10.77;;
18334;SDS011;9293;49.524;10.964;2023-06-10T05:21:20;11.07;;;10.07;;
18334;SDS011;9293;49.524;10.964;2023-06-10T05:23:49;12.13;;;10.70;;
18334;SDS011;9293;49.524;10.964;2023-06-10T05:26:19;15.07;;;11.02;;
18334;SDS011;9293;49.524;10.964;2023-06-10T05:28:49;12.02;;;10.55;;
18334;SDS011;9293;49.524;10.964;2023-06-10T05:31:17;11.25;;;10.13;;
18334;SDS011;9293;49.524;10.964;2023-06-10T05:33:46;15.68;;;14.18;;
18334;SDS011;9293;49.524;10.964;2023-06-10T05:36:14;11.15;;;9.82;;
18334;SDS011;9293;49.524;10.964;2023-06-10T05:38:43;8.65;;;7.85;;
18334;SDS011;9293;49.524;10.964;2023-06-10T05:41:11;10.63;;;8.50;;
18334;SDS011;9293;49.524;10.964;2023-06-10T05:43:40;9.13;;;8.00;;
18334;SDS011;9293;49.524;10.964;2023-06-10T05:46:08;9.55;;;8.55;;
18334;SDS011;9293;49.524;10.964;2023-06-10T05:48:37;9.13;;;8.30;;
18334;SDS011;9293;49.524;10.964;2023-06-10T05:51:06;9.43;;;8.20;;
18334;SDS011;9293;49.524;10.964;2023-06-10T05:53:37;10.10;;;8.95;;
18334;SDS011;9293;49.524;10.964;2023-06-10T05:56:06;9.93;;;8.32;;
18334;SDS011;9293;49.524;10.964;2023-06-10T05:58:34;8.73;;;7.85;;
18334;SDS011;9293;49.524;10.964;2023-06-10T06:01:03;8.68;;;7.68;;
18334;SDS011;9293;49.524;10.964;2023-06-10T06:03:31;8.68;;;7.78;;
18334;SDS011;9293;49.524;10.964;2023-06-10T06:06:02;9.07;;;7.97;;
18334;SDS011;9293;49.524;10.964;2023-06-10T06:08:30;10.07;;;8.13;;
18334;SDS011;9293;49.524;10.964;2023-06-10T06:10:59;11.98;;;8.63;;
18334;SDS011;9293;49.524;10.964;2023-06-10T06:13:27;8.52;;;7.72;;
18334;SDS011;9293;49.524;10.964;2023-06-10T06:15:55;8.80;;;8.00;;
18334;SDS011;9293;49.524;10.964;2023-06-10T06:18:24;8.73;;;8.02;;
18334;SDS011;9293;49.524;10.964;2023-06-10T06:20:53;8.65;;;7.50;;
18334;SDS011;9293;49.524;10.964;2023-06-10T06:23:23;9.15;;;8.20;;
18334;SDS011;9293;49.524;10.964;2023-06-10T06:25:52;12.45;;;7.97;;
18334;SDS011;9293;49.524;10.964;2023-06-10T06:28:20;9.73;;;8.23;;
18334;SDS011;9293;49.524;10.964;2023-06-10T06:30:49;9.52;;;8.32;;
18334;SDS011;9293;49.524;10.964;2023-06-10T06:33:21;8.77;;;7.80;;
18334;SDS011;9293;49.524;10.964;2023-06-10T06:35:52;10.07;;;8.68;;
18334;SDS011;9293;49.524;10.964;2023-06-10T06:38:22;10.63;;;7.90;;
18334;SDS011;9293;49.524;10.964;2023-06-10T06:40:52;9.80;;;8.18;;
18334;SDS011;9293;49.524;10.964;2023-06-10T06:43:20;8.38;;;7.65;;
18334;SDS011;9293;49.524;10.964;2023-06-10T06:48:31;8.57;;;7.50;;
18334;SDS011;9293;49.524;10.964;2023-06-10T06:50:59;9.32;;;8.35;;
18334;SDS011;9293;49.524;10.964;2023-06-10T06:53:31;8.32;;;7.55;;
18334;SDS011;9293;49.524;10.964;2023-06-10T06:56:01;9.52;;;7.70;;
18334;SDS011;9293;49.524;10.964;2023-06-10T06:58:30;9.20;;;8.30;;
18334;SDS011;9293;49.524;10.964;2023-06-10T07:00:58;8.88;;;8.07;;
18334;SDS011;9293;49.524;10.964;2023-06-10T07:03:27;8.23;;;7.43;;
18334;SDS011;9293;49.524;10.964;2023-06-10T07:05:55;8.77;;;7.78;;
18334;SDS011;9293;49.524;10.964;2023-06-10T07:08:24;7.20;;;6.50;;
18334;SDS011;9293;49.524;10.964;2023-06-10T07:10:52;7.30;;;6.60;;
18334;SDS011;9293;49.524;10.964;2023-06-10T07:13:21;9.05;;;5.82;;
18334;SDS011;9293;49.524;10.964;2023-06-10T07:15:50;11.02;;;7.57;;
18334;SDS011;9293;49.524;10.964;2023-06-10T07:18:19;6.90;;;6.20;;
18334;SDS011;9293;49.524;10.964;2023-06-10T07:20:49;7.55;;;6.13;;
18334;SDS011;9293;49.524;10.964;2023-06-10T07:23:17;6.80;;;6.10;;
18334;SDS011;9293;49.524;10.964;2023-06-10T07:25:49;6.28;;;5.68;;
18334;SDS011;9293;49.524;10.964;2023-06-10T07:28:19;6.40;;;5.80;;
18334;SDS011;9293;49.524;10.964;2023-06-10T07:30:48;6.80;;;5.68;;
18334;SDS011;9293;49.524;10.964;2023-06-10T07:33:17;8.65;;;6.68;;
18334;SDS011;9293;49.524;10.964;2023-06-10T07:35:45;6.15;;;5.65;;
18334;SDS011;9293;49.524;10.964;2023-06-10T07:38:14;7.40;;;5.70;;
18334;SDS011;9293;49.524;10.964;2023-06-10T07:40:54;6.75;;;5.15;;
18334;SDS011;9293;49.524;10.964;2023-06-10T07:43:22;7.10;;;5.45;;
18334;SDS011;9293;49.524;10.964;2023-06-10T07:45:54;7.03;;;5.63;;
18334;SDS011;9293;49.524;10.964;2023-06-10T07:48:23;12.30;;;6.05;;
18334;SDS011;9293;49.524;10.964;2023-06-10T07:50:51;5.35;;;4.85;;
18334;SDS011;9293;49.524;10.964;2023-06-10T07:53:28;5.65;;;5.15;;
18334;SDS011;9293;49.524;10.964;2023-06-10T07:55:56;6.40;;;5.72;;
18334;SDS011;9293;49.524;10.964;2023-06-10T07:58:24;6.45;;;4.90;;
18334;SDS011;9293;49.524;10.964;2023-06-10T08:00:52;5.25;;;4.70;;
18334;SDS011;9293;49.524;10.964;2023-06-10T08:03:22;4.80;;;4.40;;
18334;SDS011;9293;49.524;10.964;2023-06-10T08:05:50;4.90;;;4.50;;
18334;SDS011;9293;49.524;10.964;2023-06-10T08:08:19;4.55;;;4.00;;
18334;SDS011;9293;49.524;10.964;2023-06-10T08:10:50;3.70;;;3.40;;
18334;SDS011;9293;49.524;10.964;2023-06-10T08:13:24;5.22;;;3.50;;
18334;SDS011;9293;49.524;10.964;2023-06-10T08:15:58;4.43;;;3.40;;
18334;SDS011;9293;49.524;10.964;2023-06-10T08:18:28;3.22;;;2.92;;
18334;SDS011;9293;49.524;10.964;2023-06-10T08:20:57;3.50;;;3.20;;
18334;SDS011;9293;49.524;10.964;2023-06-10T08:23:25;4.05;;;3.65;;
18334;SDS011;9293;49.524;10.964;2023-06-10T08:25:53;3.92;;;3.10;;
18334;SDS011;9293;49.524;10.964;2023-06-10T08:28:22;4.88;;;3.80;;
18334;SDS011;9293;49.524;10.964;2023-06-10T08:30:50;3.28;;;2.97;;
18334;SDS011;9293;49.524;10.964;2023-06-10T08:33:24;3.72;;;3.10;;
18334;SDS011;9293;49.524;10.964;2023-06-10T08:35:56;3.60;;;3.30;;
18334;SDS011;9293;49.524;10.964;2023-06-10T08:38:27;3.72;;;3.30;;
18334;SDS011;9293;49.524;10.964;2023-06-10T08:40:56;3.33;;;3.03;;
18334;SDS011;9293;49.524;10.964;2023-06-10T08:43:31;5.18;;;3.20;;
18334;SDS011;9293;49.524;10.964;2023-06-10T08:46:03;3.28;;;3.00;;
18334;SDS011;9293;49.524;10.964;2023-06-10T08:48:32;3.33;;;3.03;;
18334;SDS011;9293;49.524;10.964;2023-06-10T08:51:03;2.97;;;2.67;;
18334;SDS011;9293;49.524;10.964;2023-06-10T08:53:35;3.17;;;2.88;;
18334;SDS011;9293;49.524;10.964;2023-06-10T08:56:06;3.30;;;3.00;;
18334;SDS011;9293;49.524;10.964;2023-06-10T08:58:36;4.65;;;2.90;;
18334;SDS011;9293;49.524;10.964;2023-06-10T09:01:09;4.78;;;2.95;;
18334;SDS011;9293;49.524;10.964;2023-06-10T09:03:38;4.10;;;2.72;;
18334;SDS011;9293;49.524;10.964;2023-06-10T09:06:07;3.90;;;2.50;;
18334;SDS011;9293;49.524;10.964;2023-06-10T09:08:36;2.65;;;2.45;;
18334;SDS011;9293;49.524;10.964;2023-06-10T09:11:06;5.00;;;2.80;;
18334;SDS011;9293;49.524;10.964;2023-06-10T09:13:34;3.78;;;3.08;;
18334;SDS011;9293;49.524;10.964;2023-06-10T09:16:03;2.95;;;2.40;;
18334;SDS011;9293;49.524;10.964;2023-06-10T09:18:31;3.28;;;2.50;;
18334;SDS011;9293;49.524;10.964;2023-06-10T09:21:00;5.45;;;2.50;;
18334;SDS011;9293;49.524;10.964;2023-06-10T09:23:28;2.30;;;2.10;;
18334;SDS011;9293;49.524;10.964;2023-06-10T09:25:57;2.40;;;2.20;;
18334;SDS011;9293;49.524;10.964;2023-06-10T09:28:26;2.50;;;2.30;;
18334;SDS011;9293;49.524;10.964;2023-06-10T09:31:04;2.67;;;2.33;;
18334;SDS011;9293;49.524;10.964;2023-06-10T09:33:38;3.03;;;2.58;;
18334;SDS011;9293;49.524;10.964;2023-06-10T09:36:07;2.38;;;2.08;;
18334;SDS011;9293;49.524;10.964;2023-06-10T09:38:36;2.58;;;2.28;;
18334;SDS011;9293;49.524;10.964;2023-06-10T09:41:05;3.33;;;2.20;;
18334;SDS011;9293;49.524;10.964;2023-06-10T09:43:44;2.65;;;2.08;;
18334;SDS011;9293;49.524;10.964;2023-06-10T09:46:14;3.40;;;2.08;;
18334;SDS011;9293;49.524;10.964;2023-06-10T09:48:47;4.00;;;3.10;;
18334;SDS011;9293;49.524;10.964;2023-06-10T09:51:16;2.70;;;2.30;;
18334;SDS011;9293;49.524;10.964;2023-06-10T09:53:48;3.42;;;2.10;;
18334;SDS011;9293;49.524;10.964;2023-06-10T09:56:18;2.28;;;2.08;;
18334;SDS011;9293;49.524;10.964;2023-06-10T09:58:46;2.60;;;2.40;;
18334;SDS011;9293;49.524;10.964;2023-06-10T10:01:15;5.25;;;2.45;;
18334;SDS011;9293;49.524;10.964;2023-06-10T10:03:47;2.80;;;2.30;;
18334;SDS011;9293;49.524;10.964;2023-06-10T10:06:18;2.45;;;2.25;;
18334;SDS011;9293;49.524;10.964;2023-06-10T10:08:50;4.00;;;2.53;;
18334;SDS011;9293;49.524;10.964;2023-06-10T10:11:20;2.70;;;2.50;;
18334;SDS011;9293;49.524;10.964;2023-06-10T10:13:58;4.80;;;2.78;;
18334;SDS011;9293;49.524;10.964;2023-06-10T10:16:29;3.03;;;2.40;;
18334;SDS011;9293;49.524;10.964;2023-06-10T10:19:07;4.35;;;2.65;;
18334;SDS011;9293;49.524;10.964;2023-06-10T10:21:41;2.88;;;2.38;;
18334;SDS011;9293;49.524;10.964;2023-06-10T10:24:14;2.70;;;2.50;;
18334;SDS011;9293;49.524;10.964;2023-06-10T10:26:49;4.40;;;2.88;;
18334;SDS011;9293;49.524;10.964;2023-06-10T10:29:33;2.77;;;2.57;;
18334;SDS011;9293;49.524;10.964;2023-06-10T10:32:06;3.50;;;2.67;;
18334;SDS011;9293;49.524;10.964;2023-06-10T10:37:19;3.13;;;2.92;;
18334;SDS011;9293;49.524;10.964;2023-06-10T10:39:49;3.35;;;2.90;;
18334;SDS011;9293;49.524;10.964;2023-06-10T10:42:18;3.38;;;2.95;;
18334;SDS011;9293;49.524;10.964;2023-06-10T10:44:47;3.13;;;2.83;;
18334;SDS011;9293;49.524;10.964;2023-06-10T10:47:19;3.45;;;3.15;;
18334;SDS011;9293;49.524;10.964;2023-06-10T10:49:55;3.00;;;2.70;;
18334;SDS011;9293;49.524;10.964;2023-06-10T10:52:43;2.90;;;2.70;;
18334;SDS011;9293;49.524;10.964;2023-06-10T10:55:26;3.10;;;2.47;;
18334;SDS011;9293;49.524;10.964;2023-06-10T10:57:56;3.65;;;2.47;;
18334;SDS011;9293;49.524;10.964;2023-06-10T11:00:41;3.70;;;2.67;;
18334;SDS011;9293;49.524;10.964;2023-06-10T11:03:13;3.30;;;2.53;;
18334;SDS011;9293;49.524;10.964;2023-06-10T11:05:47;3.22;;;2.92;;
18334;SDS011;9293;49.524;10.964;2023-06-10T11:11:00;4.55;;;2.92;;
18334;SDS011;9293;49.524;10.964;2023-06-10T11:13:58;3.58;;;2.53;;
18334;SDS011;9293;49.524;10.964;2023-06-10T11:16:40;3.50;;;2.83;;
18334;SDS011;9293;49.524;10.964;2023-06-10T11:19:10;3.10;;;2.80;;
18334;SDS011;9293;49.524;10.964;2023-06-10T11:22:07;4.88;;;3.45;;
18334;SDS011;9293;49.524;10.964;2023-06-10T11:32:38;4.55;;;3.63;;
18334;SDS011;9293;49.524;10.964;2023-06-10T11:37:39;3.63;;;3.33;;
18334;SDS011;9293;49.524;10.964;2023-06-10T11:40:09;6.07;;;3.38;;
18334;SDS011;9293;49.524;10.964;2023-06-10T11:42:40;4.90;;;3.50;;
18334;SDS011;9293;49.524;10.964;2023-06-10T11:45:10;3.95;;;3.45;;
18334;SDS011;9293;49.524;10.964;2023-06-10T11:47:59;4.28;;;3.35;;
18334;SDS011;9293;49.524;10.964;2023-06-10T11:50:28;3.97;;;3.60;;
18334;SDS011;9293;49.524;10.964;2023-06-10T11:53:00;4.88;;;2.80;;
18334;SDS011;9293;49.524;10.964;2023-06-10T11:55:42;4.28;;;2.88;;
18334;SDS011;9293;49.524;10.964;2023-06-10T12:00:44;3.53;;;3.10;;
18334;SDS011;9293;49.524;10.964;2023-06-10T12:03:24;3.20;;;2.90;;
18334;SDS011;9293;49.524;10.964;2023-06-10T12:05:57;2.83;;;2.63;;
18334;SDS011;9293;49.524;10.964;2023-06-10T12:08:26;3.40;;;3.10;;
18334;SDS011;9293;49.524;10.964;2023-06-10T12:10:55;3.05;;;2.85;;
18334;SDS011;9293;49.524;10.964;2023-06-10T12:13:26;3.13;;;2.85;;
18334;SDS011;9293;49.524;10.964;2023-06-10T12:16:05;2.88;;;2.65;;
18334;SDS011;9293;49.524;10.964;2023-06-10T12:18:36;2.72;;;2.45;;
18334;SDS011;9293;49.524;10.964;2023-06-10T12:21:15;3.83;;;2.75;;
18334;SDS011;9293;49.524;10.964;2023-06-10T12:24:02;4.65;;;2.72;;
18334;SDS011;9293;49.524;10.964;2023-06-10T12:26:42;3.38;;;3.00;;
18334;SDS011;9293;49.524;10.964;2023-06-10T12:31:58;3.58;;;2.58;;
18334;SDS011;9293;49.524;10.964;2023-06-10T12:34:32;2.95;;;2.75;;
18334;SDS011;9293;49.524;10.964;2023-06-10T12:37:02;3.58;;;3.10;;
18334;SDS011;9293;49.524;10.964;2023-06-10T12:39:32;3.23;;;2.90;;
18334;SDS011;9293;49.524;10.964;2023-06-10T12:42:01;2.92;;;2.72;;
18334;SDS011;9293;49.524;10.964;2023-06-10T12:44:35;2.63;;;2.42;;
18334;SDS011;9293;49.524;10.964;2023-06-10T12:47:09;3.20;;;2.80;;
18334;SDS011;9293;49.524;10.964;2023-06-10T12:49:42;4.65;;;2.70;;
18334;SDS011;9293;49.524;10.964;2023-06-10T12:52:11;2.88;;;2.55;;
18334;SDS011;9293;49.524;10.964;2023-06-10T12:54:39;4.07;;;2.58;;
18334;SDS011;9293;49.524;10.964;2023-06-10T12:57:08;2.63;;;2.42;;
18334;SDS011;9293;49.524;10.964;2023-06-10T12:59:38;2.65;;;2.45;;
18334;SDS011;9293;49.524;10.964;2023-06-10T13:02:07;2.83;;;2.53;;
18334;SDS011;9293;49.524;10.964;2023-06-10T13:04:36;2.95;;;2.67;;
18334;SDS011;9293;49.524;10.964;2023-06-10T13:07:05;2.55;;;2.35;;
18334;SDS011;9293;49.524;10.964;2023-06-10T13:09:34;2.78;;;2.58;;
18334;SDS011;9293;49.524;10.964;2023-06-10T13:12:03;2.60;;;2.40;;
18334;SDS011;9293;49.524;10.964;2023-06-10T13:14:41;2.63;;;1.90;;
18334;SDS011;9293;49.524;10.964;2023-06-10T13:17:11;2.63;;;1.92;;
18334;SDS011;9293;49.524;10.964;2023-06-10T13:19:39;2.35;;;2.10;;
18334;SDS011;9293;49.524;10.964;2023-06-10T13:22:08;2.45;;;2.25;;
18334;SDS011;9293;49.524;10.964;2023-06-10T13:24:38;5.15;;;4.70;;
18334;SDS011;9293;49.524;10.964;2023-06-10T13:29:35;2.55;;;2.15;;
18334;SDS011;9293;49.524;10.964;2023-06-10T13:32:04;2.80;;;2.22;;
18334;SDS011;9293;49.524;10.964;2023-06-10T13:34:35;2.50;;;2.30;;
18334;SDS011;9293;49.524;10.964;2023-06-10T13:37:04;2.53;;;2.13;;
18334;SDS011;9293;49.524;10.964;2023-06-10T13:39:33;3.30;;;2.25;;
18334;SDS011;9293;49.524;10.964;2023-06-10T13:42:02;2.40;;;2.20;;
18334;SDS011;9293;49.524;10.964;2023-06-10T13:44:30;2.97;;;2.67;;
18334;SDS011;9293;49.524;10.964;2023-06-10T13:47:03;2.80;;;2.53;;
18334;SDS011;9293;49.524;10.964;2023-06-10T13:49:40;4.70;;;2.55;;
18334;SDS011;9293;49.524;10.964;2023-06-10T13:52:09;3.10;;;2.72;;
18334;SDS011;9293;49.524;10.964;2023-06-10T13:54:38;3.13;;;2.00;;
18334;SDS011;9293;49.524;10.964;2023-06-10T13:57:08;2.55;;;2.35;;
18334;SDS011;9293;49.524;10.964;2023-06-10T13:59:39;2.20;;;2.00;;
18334;SDS011;9293;49.524;10.964;2023-06-10T14:02:07;2.17;;;1.95;;
18334;SDS011;9293;49.524;10.964;2023-06-10T14:04:37;2.15;;;1.95;;
18334;SDS011;9293;49.524;10.964;2023-06-10T14:07:05;2.30;;;2.10;;
18334;SDS011;9293;49.524;10.964;2023-06-10T14:09:34;3.15;;;1.80;;
18334;SDS011;9293;49.524;10.964;2023-06-10T14:12:02;2.75;;;1.80;;
18334;SDS011;9293;49.524;10.964;2023-06-10T14:14:31;2.13;;;1.85;;
18334;SDS011;9293;49.524;10.964;2023-06-10T14:17:00;2.40;;;1.70;;
18334;SDS011;9293;49.524;10.964;2023-06-10T14:19:29;1.70;;;1.60;;
18334;SDS011;9293;49.524;10.964;2023-06-10T14:21:58;2.15;;;1.95;;
18334;SDS011;9293;49.524;10.964;2023-06-10T14:24:26;3.15;;;2.80;;
18334;SDS011;9293;49.524;10.964;2023-06-10T14:26:54;2.88;;;2.00;;
18334;SDS011;9293;49.524;10.964;2023-06-10T14:29:25;3.57;;;2.20;;
18334;SDS011;9293;49.524;10.964;2023-06-10T14:31:56;3.72;;;3.30;;
18334;SDS011;9293;49.524;10.964;2023-06-10T14:34:27;3.00;;;2.70;;
18334;SDS011;9293;49.524;10.964;2023-06-10T14:36:59;2.97;;;2.30;;
18334;SDS011;9293;49.524;10.964;2023-06-10T14:39:29;2.60;;;2.20;;
18334;SDS011;9293;49.524;10.964;2023-06-10T14:42:00;1.90;;;1.70;;
18334;SDS011;9293;49.524;10.964;2023-06-10T14:44:29;1.83;;;1.67;;
18334;SDS011;9293;49.524;10.964;2023-06-10T14:46:59;3.05;;;1.85;;
18334;SDS011;9293;49.524;10.964;2023-06-10T14:49:30;2.25;;;2.05;;
18334;SDS011;9293;49.524;10.964;2023-06-10T14:52:02;3.28;;;1.80;;
18334;SDS011;9293;49.524;10.964;2023-06-10T14:54:30;2.50;;;2.00;;
18334;SDS011;9293;49.524;10.964;2023-06-10T14:56:59;3.63;;;1.70;;
18334;SDS011;9293;49.524;10.964;2023-06-10T14:59:27;3.63;;;2.42;;
18334;SDS011;9293;49.524;10.964;2023-06-10T15:01:55;2.88;;;1.52;;
18334;SDS011;9293;49.524;10.964;2023-06-10T15:04:25;2.65;;;2.30;;
18334;SDS011;9293;49.524;10.964;2023-06-10T15:06:55;4.00;;;2.63;;
18334;SDS011;9293;49.524;10.964;2023-06-10T15:09:23;2.50;;;1.75;;
18334;SDS011;9293;49.524;10.964;2023-06-10T15:11:53;1.75;;;1.65;;
18334;SDS011;9293;49.524;10.964;2023-06-10T15:14:21;2.20;;;2.03;;
18334;SDS011;9293;49.524;10.964;2023-06-10T15:16:50;3.17;;;1.92;;
18334;SDS011;9293;49.524;10.964;2023-06-10T15:19:19;2.05;;;1.90;;
18334;SDS011;9293;49.524;10.964;2023-06-10T15:21:47;2.42;;;1.98;;
18334;SDS011;9293;49.524;10.964;2023-06-10T15:24:16;2.70;;;2.10;;
18334;SDS011;9293;49.524;10.964;2023-06-10T15:26:44;2.05;;;1.80;;
18334;SDS011;9293;49.524;10.964;2023-06-10T15:29:13;3.95;;;2.63;;
18334;SDS011;9293;49.524;10.964;2023-06-10T15:31:41;3.88;;;2.55;;
18334;SDS011;9293;49.524;10.964;2023-06-10T15:34:10;3.75;;;2.90;;
18334;SDS011;9293;49.524;10.964;2023-06-10T15:36:38;3.20;;;2.20;;
18334;SDS011;9293;49.524;10.964;2023-06-10T15:39:07;7.20;;;4.68;;
18334;SDS011;9293;49.524;10.964;2023-06-10T15:41:35;64.45;;;26.42;;
18334;SDS011;9293;49.524;10.964;2023-06-10T15:44:06;4.63;;;3.72;;
18334;SDS011;9293;49.524;10.964;2023-06-10T15:46:34;7.63;;;6.13;;
18334;SDS011;9293;49.524;10.964;2023-06-10T15:49:03;23.83;;;14.40;;